sensor_id;sensor_type;location;lat;lon;timestamp;P1;durP1;ratioP1;P2;durP2;ratioP2
2011;SDS011;1009;51.436;6.972;2023-11-18T00:00:48;44.77;;;21.60;;
2011;SDS011;1009;51.436;6.972;2023-11-18T00:03:15;47.47;;;21.70;;
2011;SDS011;1009;51.436;6.972;2023-11-18T00:05:42;47.33;;;22.00;;
2011;SDS011;1009;51.436;6.972;2023-11-18T00:08:09;48.37;;;21.03;;
2011;SDS011;1009;51.436;6.972;2023-11-18T00:10:36;50.80;;;22.10;;
2011;SDS011;1009;51.436;6.972;2023-11-18T00:13:04;48.03;;;21.63;;
2011;SDS011;1009;51.436;6.972;2023-11-18T00:15:31;49.93;;;23.90;;
2011;SDS011;1009;51.436;6.972;2023-11-18T00:17:59;45.73;;;22.07;;
2011;SDS011;1009;51.436;6.972;2023-11-18T00:20:26;50.97;;;21.10;;
2011;SDS011;1009;51.436;6.972;2023-11-18T00:22:56;40.10;;;20.43;;
2011;SDS011;1009;51.436;6.972;2023-11-18T00:25:22;42.00;;;21.13;;
2011;SDS011;1009;51.436;6.972;2023-11-18T00:27:49;41.20;;;20.80;;
2011;SDS011;1009;51.436;6.972;2023-11-18T00:30:18;39.50;;;20.20;;
2011;SDS011;1009;51.436;6.972;2023-11-18T00:32:44;36.40;;;17.90;;
2011;SDS011;1009;51.436;6.972;2023-11-18T00:35:11;38.60;;;19.37;;
2011;SDS011;1009;51.436;6.972;2023-11-18T00:37:38;35.17;;;18.53;;
2011;SDS011;1009;51.436;6.972;2023-11-18T00:40:05;37.57;;;19.87;;
2011;SDS011;1009;51.436;6.972;2023-11-18T00:42:33;40.93;;;19.87;;
2011;SDS011;1009;51.436;6.972;2023-11-18T00:45:00;34.50;;;17.00;;
2011;SDS011;1009;51.436;6.972;2023-11-18T00:47:30;35.50;;;18.73;;
2011;SDS011;1009;51.436;6.972;2023-11-18T00:49:57;37.10;;;17.10;;
2011;SDS011;1009;51.436;6.972;2023-11-18T00:52:27;37.47;;;19.13;;
2011;SDS011;1009;51.436;6.972;2023-11-18T00:54:54;40.03;;;19.00;;
2011;SDS011;1009;51.436;6.972;2023-11-18T00:57:28;32.30;;;17.67;;
2011;SDS011;1009;51.436;6.972;2023-11-18T00:59:56;37.03;;;18.63;;
2011;SDS011;1009;51.436;6.972;2023-11-18T01:02:24;33.50;;;18.47;;
2011;SDS011;1009;51.436;6.972;2023-11-18T01:04:58;33.07;;;17.20;;
2011;SDS011;1009;51.436;6.972;2023-11-18T01:07:26;37.40;;;16.70;;
2011;SDS011;1009;51.436;6.972;2023-11-18T01:09:53;33.23;;;17.03;;
2011;SDS011;1009;51.436;6.972;2023-11-18T01:12:22;31.83;;;15.90;;
2011;SDS011;1009;51.436;6.972;2023-11-18T01:14:59;34.30;;;16.87;;
2011;SDS011;1009;51.436;6.972;2023-11-18T01:17:30;36.57;;;16.47;;
2011;SDS011;1009;51.436;6.972;2023-11-18T01:20:10;29.60;;;14.50;;
2011;SDS011;1009;51.436;6.972;2023-11-18T01:22:44;30.07;;;15.50;;
2011;SDS011;1009;51.436;6.972;2023-11-18T01:25:13;26.63;;;15.00;;
2011;SDS011;1009;51.436;6.972;2023-11-18T01:27:44;30.33;;;16.87;;
2011;SDS011;1009;51.436;6.972;2023-11-18T01:30:14;28.23;;;14.70;;
2011;SDS011;1009;51.436;6.972;2023-11-18T01:32:48;24.30;;;13.37;;
2011;SDS011;1009;51.436;6.972;2023-11-18T01:35:17;29.63;;;14.80;;
2011;SDS011;1009;51.436;6.972;2023-11-18T01:37:52;24.40;;;13.50;;
2011;SDS011;1009;51.436;6.972;2023-11-18T01:40:22;31.60;;;14.63;;
2011;SDS011;1009;51.436;6.972;2023-11-18T01:42:55;27.67;;;13.47;;
2011;SDS011;1009;51.436;6.972;2023-11-18T01:45:30;26.97;;;13.10;;
2011;SDS011;1009;51.436;6.972;2023-11-18T01:47:58;22.80;;;13.40;;
2011;SDS011;1009;51.436;6.972;2023-11-18T01:50:36;27.03;;;13.60;;
2011;SDS011;1009;51.436;6.972;2023-11-18T01:53:05;23.50;;;13.10;;
2011;SDS011;1009;51.436;6.972;2023-11-18T01:55:38;24.67;;;13.70;;
2011;SDS011;1009;51.436;6.972;2023-11-18T01:58:07;24.13;;;12.97;;
2011;SDS011;1009;51.436;6.972;2023-11-18T02:00:45;24.47;;;13.67;;
2011;SDS011;1009;51.436;6.972;2023-11-18T02:03:16;25.43;;;12.83;;
2011;SDS011;1009;51.436;6.972;2023-11-18T02:05:48;25.67;;;13.37;;
2011;SDS011;1009;51.436;6.972;2023-11-18T02:08:16;23.47;;;12.67;;
2011;SDS011;1009;51.436;6.972;2023-11-18T02:10:46;20.80;;;12.23;;
2011;SDS011;1009;51.436;6.972;2023-11-18T02:13:21;24.23;;;13.33;;
2011;SDS011;1009;51.436;6.972;2023-11-18T02:16:00;21.67;;;12.83;;
2011;SDS011;1009;51.436;6.972;2023-11-18T02:18:33;22.40;;;12.77;;
2011;SDS011;1009;51.436;6.972;2023-11-18T02:21:03;23.83;;;13.87;;
2011;SDS011;1009;51.436;6.972;2023-11-18T02:23:34;21.07;;;12.27;;
2011;SDS011;1009;51.436;6.972;2023-11-18T02:26:06;25.77;;;15.37;;
2011;SDS011;1009;51.436;6.972;2023-11-18T02:28:33;20.10;;;11.20;;
2011;SDS011;1009;51.436;6.972;2023-11-18T02:31:01;23.50;;;13.07;;
2011;SDS011;1009;51.436;6.972;2023-11-18T02:33:35;22.00;;;12.77;;
2011;SDS011;1009;51.436;6.972;2023-11-18T02:36:10;22.33;;;12.17;;
2011;SDS011;1009;51.436;6.972;2023-11-18T02:42:12;20.63;;;14.50;;
2011;SDS011;1009;51.436;6.972;2023-11-18T02:44:39;25.43;;;12.90;;
2011;SDS011;1009;51.436;6.972;2023-11-18T02:47:10;25.17;;;13.33;;
2011;SDS011;1009;51.436;6.972;2023-11-18T02:49:37;20.53;;;12.67;;
2011;SDS011;1009;51.436;6.972;2023-11-18T02:52:05;25.47;;;13.53;;
2011;SDS011;1009;51.436;6.972;2023-11-18T02:54:36;25.47;;;12.80;;
2011;SDS011;1009;51.436;6.972;2023-11-18T02:57:02;19.07;;;11.50;;
2011;SDS011;1009;51.436;6.972;2023-11-18T02:59:35;23.30;;;12.97;;
2011;SDS011;1009;51.436;6.972;2023-11-18T03:02:05;24.13;;;14.30;;
2011;SDS011;1009;51.436;6.972;2023-11-18T03:04:33;21.13;;;12.50;;
2011;SDS011;1009;51.436;6.972;2023-11-18T03:07:00;22.37;;;13.70;;
2011;SDS011;1009;51.436;6.972;2023-11-18T03:09:28;23.47;;;15.23;;
2011;SDS011;1009;51.436;6.972;2023-11-18T03:11:56;21.23;;;13.87;;
2011;SDS011;1009;51.436;6.972;2023-11-18T03:14:24;23.27;;;13.23;;
2011;SDS011;1009;51.436;6.972;2023-11-18T03:16:55;22.87;;;14.20;;
2011;SDS011;1009;51.436;6.972;2023-11-18T03:19:23;22.80;;;13.83;;
2011;SDS011;1009;51.436;6.972;2023-11-18T03:21:50;19.50;;;13.53;;
2011;SDS011;1009;51.436;6.972;2023-11-18T03:24:18;19.37;;;12.37;;
2011;SDS011;1009;51.436;6.972;2023-11-18T03:26:45;23.27;;;13.43;;
2011;SDS011;1009;51.436;6.972;2023-11-18T03:29:12;23.80;;;12.97;;
2011;SDS011;1009;51.436;6.972;2023-11-18T03:31:39;22.33;;;13.73;;
2011;SDS011;1009;51.436;6.972;2023-11-18T03:34:11;24.43;;;13.73;;
2011;SDS011;1009;51.436;6.972;2023-11-18T03:36:41;23.70;;;14.50;;
2011;SDS011;1009;51.436;6.972;2023-11-18T03:39:10;27.03;;;13.97;;
2011;SDS011;1009;51.436;6.972;2023-11-18T03:41:37;25.87;;;14.43;;
2011;SDS011;1009;51.436;6.972;2023-11-18T03:44:05;22.40;;;13.80;;
2011;SDS011;1009;51.436;6.972;2023-11-18T03:46:35;20.97;;;12.97;;
2011;SDS011;1009;51.436;6.972;2023-11-18T03:49:05;26.70;;;15.13;;
2011;SDS011;1009;51.436;6.972;2023-11-18T03:51:53;22.03;;;12.47;;
2011;SDS011;1009;51.436;6.972;2023-11-18T03:54:20;22.50;;;13.13;;
2011;SDS011;1009;51.436;6.972;2023-11-18T03:56:48;27.90;;;14.10;;
2011;SDS011;1009;51.436;6.972;2023-11-18T03:59:16;23.53;;;12.90;;
2011;SDS011;1009;51.436;6.972;2023-11-18T04:01:43;24.60;;;14.13;;
2011;SDS011;1009;51.436;6.972;2023-11-18T04:04:14;24.63;;;14.03;;
2011;SDS011;1009;51.436;6.972;2023-11-18T04:06:41;22.17;;;13.27;;
2011;SDS011;1009;51.436;6.972;2023-11-18T04:09:15;20.57;;;12.80;;
2011;SDS011;1009;51.436;6.972;2023-11-18T04:11:45;27.07;;;13.83;;
2011;SDS011;1009;51.436;6.972;2023-11-18T04:14:18;22.87;;;12.67;;
2011;SDS011;1009;51.436;6.972;2023-11-18T04:16:53;24.87;;;12.97;;
2011;SDS011;1009;51.436;6.972;2023-11-18T04:19:23;24.27;;;13.40;;
2011;SDS011;1009;51.436;6.972;2023-11-18T04:21:55;23.13;;;13.40;;
2011;SDS011;1009;51.436;6.972;2023-11-18T04:24:23;20.20;;;12.27;;
2011;SDS011;1009;51.436;6.972;2023-11-18T04:26:51;19.03;;;11.83;;
2011;SDS011;1009;51.436;6.972;2023-11-18T04:29:22;22.13;;;13.20;;
2011;SDS011;1009;51.436;6.972;2023-11-18T04:31:49;20.80;;;12.73;;
2011;SDS011;1009;51.436;6.972;2023-11-18T04:34:19;21.00;;;13.47;;
2011;SDS011;1009;51.436;6.972;2023-11-18T04:36:47;24.37;;;13.10;;
2011;SDS011;1009;51.436;6.972;2023-11-18T04:39:24;21.03;;;13.20;;
2011;SDS011;1009;51.436;6.972;2023-11-18T04:41:55;21.30;;;12.77;;
2011;SDS011;1009;51.436;6.972;2023-11-18T04:44:26;25.40;;;13.93;;
2011;SDS011;1009;51.436;6.972;2023-11-18T04:46:56;21.13;;;12.90;;
2011;SDS011;1009;51.436;6.972;2023-11-18T04:49:33;25.37;;;14.00;;
2011;SDS011;1009;51.436;6.972;2023-11-18T04:52:00;24.67;;;13.43;;
2011;SDS011;1009;51.436;6.972;2023-11-18T04:54:29;24.30;;;14.40;;
2011;SDS011;1009;51.436;6.972;2023-11-18T04:56:56;22.23;;;13.90;;
2011;SDS011;1009;51.436;6.972;2023-11-18T04:59:23;24.10;;;13.70;;
2011;SDS011;1009;51.436;6.972;2023-11-18T05:01:58;23.13;;;14.70;;
2011;SDS011;1009;51.436;6.972;2023-11-18T05:04:31;27.50;;;15.60;;
2011;SDS011;1009;51.436;6.972;2023-11-18T05:06:58;24.63;;;14.13;;
2011;SDS011;1009;51.436;6.972;2023-11-18T05:09:34;27.07;;;13.10;;
2011;SDS011;1009;51.436;6.972;2023-11-18T05:12:05;23.33;;;13.50;;
2011;SDS011;1009;51.436;6.972;2023-11-18T05:14:36;22.83;;;13.60;;
2011;SDS011;1009;51.436;6.972;2023-11-18T05:17:04;29.17;;;15.70;;
2011;SDS011;1009;51.436;6.972;2023-11-18T05:19:32;21.20;;;13.60;;
2011;SDS011;1009;51.436;6.972;2023-11-18T05:22:00;25.63;;;16.30;;
2011;SDS011;1009;51.436;6.972;2023-11-18T05:24:27;24.50;;;14.30;;
2011;SDS011;1009;51.436;6.972;2023-11-18T05:26:59;19.73;;;12.93;;
2011;SDS011;1009;51.436;6.972;2023-11-18T05:29:30;26.10;;;14.23;;
2011;SDS011;1009;51.436;6.972;2023-11-18T05:32:04;25.10;;;13.60;;
2011;SDS011;1009;51.436;6.972;2023-11-18T05:34:34;26.90;;;15.20;;
2011;SDS011;1009;51.436;6.972;2023-11-18T05:37:06;25.73;;;15.30;;
2011;SDS011;1009;51.436;6.972;2023-11-18T05:39:33;25.47;;;14.53;;
2011;SDS011;1009;51.436;6.972;2023-11-18T05:42:09;25.03;;;14.43;;
2011;SDS011;1009;51.436;6.972;2023-11-18T05:44:47;24.77;;;13.60;;
2011;SDS011;1009;51.436;6.972;2023-11-18T05:47:25;24.30;;;13.80;;
2011;SDS011;1009;51.436;6.972;2023-11-18T05:49:55;22.47;;;13.60;;
2011;SDS011;1009;51.436;6.972;2023-11-18T05:52:24;24.27;;;14.23;;
2011;SDS011;1009;51.436;6.972;2023-11-18T05:54:52;23.60;;;13.80;;
2011;SDS011;1009;51.436;6.972;2023-11-18T05:57:21;23.77;;;14.17;;
2011;SDS011;1009;51.436;6.972;2023-11-18T05:59:48;26.63;;;14.03;;
2011;SDS011;1009;51.436;6.972;2023-11-18T06:02:16;24.30;;;13.90;;
2011;SDS011;1009;51.436;6.972;2023-11-18T06:04:44;19.93;;;12.50;;
2011;SDS011;1009;51.436;6.972;2023-11-18T06:07:12;22.90;;;12.93;;
2011;SDS011;1009;51.436;6.972;2023-11-18T06:09:43;23.00;;;14.73;;
2011;SDS011;1009;51.436;6.972;2023-11-18T06:12:11;21.50;;;13.30;;
2011;SDS011;1009;51.436;6.972;2023-11-18T06:14:40;23.23;;;13.60;;
2011;SDS011;1009;51.436;6.972;2023-11-18T06:17:10;20.70;;;13.57;;
2011;SDS011;1009;51.436;6.972;2023-11-18T06:19:38;23.97;;;14.07;;
2011;SDS011;1009;51.436;6.972;2023-11-18T06:22:12;24.10;;;14.17;;
2011;SDS011;1009;51.436;6.972;2023-11-18T06:24:41;28.07;;;14.87;;
2011;SDS011;1009;51.436;6.972;2023-11-18T06:27:12;22.57;;;13.97;;
2011;SDS011;1009;51.436;6.972;2023-11-18T06:29:44;20.33;;;12.80;;
2011;SDS011;1009;51.436;6.972;2023-11-18T06:32:11;28.70;;;13.27;;
2011;SDS011;1009;51.436;6.972;2023-11-18T06:34:43;22.97;;;13.47;;
2011;SDS011;1009;51.436;6.972;2023-11-18T06:37:10;22.47;;;12.93;;
2011;SDS011;1009;51.436;6.972;2023-11-18T06:39:40;22.97;;;14.37;;
2011;SDS011;1009;51.436;6.972;2023-11-18T06:42:20;20.70;;;12.83;;
2011;SDS011;1009;51.436;6.972;2023-11-18T06:44:52;23.20;;;12.40;;
2011;SDS011;1009;51.436;6.972;2023-11-18T06:47:23;25.40;;;15.37;;
2011;SDS011;1009;51.436;6.972;2023-11-18T06:50:02;20.93;;;13.50;;
2011;SDS011;1009;51.436;6.972;2023-11-18T06:52:39;19.77;;;12.60;;
2011;SDS011;1009;51.436;6.972;2023-11-18T06:55:08;19.83;;;11.93;;
2011;SDS011;1009;51.436;6.972;2023-11-18T06:57:42;21.50;;;12.87;;
2011;SDS011;1009;51.436;6.972;2023-11-18T07:00:14;25.63;;;13.07;;
2011;SDS011;1009;51.436;6.972;2023-11-18T07:02:41;20.67;;;12.37;;
2011;SDS011;1009;51.436;6.972;2023-11-18T07:05:08;19.50;;;11.67;;
2011;SDS011;1009;51.436;6.972;2023-11-18T07:07:36;20.00;;;12.13;;
2011;SDS011;1009;51.436;6.972;2023-11-18T07:10:04;18.77;;;11.27;;
2011;SDS011;1009;51.436;6.972;2023-11-18T07:12:38;17.13;;;11.43;;
2011;SDS011;1009;51.436;6.972;2023-11-18T07:15:09;23.70;;;12.10;;
2011;SDS011;1009;51.436;6.972;2023-11-18T07:17:37;18.27;;;12.23;;
2011;SDS011;1009;51.436;6.972;2023-11-18T07:20:11;25.27;;;13.57;;
2011;SDS011;1009;51.436;6.972;2023-11-18T07:22:42;20.07;;;11.60;;
2011;SDS011;1009;51.436;6.972;2023-11-18T07:25:14;17.77;;;12.20;;
2011;SDS011;1009;51.436;6.972;2023-11-18T07:27:44;20.13;;;12.53;;
2011;SDS011;1009;51.436;6.972;2023-11-18T07:30:13;19.77;;;11.13;;
2011;SDS011;1009;51.436;6.972;2023-11-18T07:32:45;19.30;;;12.17;;
2011;SDS011;1009;51.436;6.972;2023-11-18T07:35:16;16.70;;;11.17;;
2011;SDS011;1009;51.436;6.972;2023-11-18T07:37:48;17.13;;;11.23;;
2011;SDS011;1009;51.436;6.972;2023-11-18T07:40:20;18.40;;;10.60;;
2011;SDS011;1009;51.436;6.972;2023-11-18T07:42:59;19.20;;;12.90;;
2011;SDS011;1009;51.436;6.972;2023-11-18T07:45:36;17.77;;;10.97;;
2011;SDS011;1009;51.436;6.972;2023-11-18T07:48:07;16.03;;;9.93;;
2011;SDS011;1009;51.436;6.972;2023-11-18T07:50:37;18.87;;;10.80;;
2011;SDS011;1009;51.436;6.972;2023-11-18T07:53:07;18.30;;;11.03;;
2011;SDS011;1009;51.436;6.972;2023-11-18T07:55:35;14.70;;;9.37;;
2011;SDS011;1009;51.436;6.972;2023-11-18T07:58:14;18.93;;;10.97;;
2011;SDS011;1009;51.436;6.972;2023-11-18T08:00:59;17.73;;;10.40;;
2011;SDS011;1009;51.436;6.972;2023-11-18T08:03:27;20.57;;;10.60;;
2011;SDS011;1009;51.436;6.972;2023-11-18T08:05:58;18.60;;;11.47;;
2011;SDS011;1009;51.436;6.972;2023-11-18T08:08:36;12.83;;;8.80;;
2011;SDS011;1009;51.436;6.972;2023-11-18T08:11:06;19.20;;;10.77;;
2011;SDS011;1009;51.436;6.972;2023-11-18T08:13:42;17.87;;;10.90;;
2011;SDS011;1009;51.436;6.972;2023-11-18T08:16:16;16.33;;;10.33;;
2011;SDS011;1009;51.436;6.972;2023-11-18T08:18:43;14.83;;;9.77;;
2011;SDS011;1009;51.436;6.972;2023-11-18T08:21:11;15.40;;;9.77;;
2011;SDS011;1009;51.436;6.972;2023-11-18T08:23:38;12.53;;;7.67;;
2011;SDS011;1009;51.436;6.972;2023-11-18T08:26:05;14.33;;;8.67;;
2011;SDS011;1009;51.436;6.972;2023-11-18T08:28:33;11.30;;;8.20;;
2011;SDS011;1009;51.436;6.972;2023-11-18T08:31:01;11.87;;;8.23;;
2011;SDS011;1009;51.436;6.972;2023-11-18T08:33:29;12.30;;;8.50;;
2011;SDS011;1009;51.436;6.972;2023-11-18T08:35:57;13.23;;;8.67;;
2011;SDS011;1009;51.436;6.972;2023-11-18T08:38:26;11.70;;;8.53;;
2011;SDS011;1009;51.436;6.972;2023-11-18T08:40:54;9.57;;;7.63;;
2011;SDS011;1009;51.436;6.972;2023-11-18T08:43:25;14.30;;;8.40;;
2011;SDS011;1009;51.436;6.972;2023-11-18T08:45:54;10.20;;;7.17;;
2011;SDS011;1009;51.436;6.972;2023-11-18T08:48:21;17.30;;;8.23;;
2011;SDS011;1009;51.436;6.972;2023-11-18T08:50:51;16.00;;;8.00;;
2011;SDS011;1009;51.436;6.972;2023-11-18T08:53:18;10.83;;;7.07;;
2011;SDS011;1009;51.436;6.972;2023-11-18T08:55:51;11.80;;;7.17;;
2011;SDS011;1009;51.436;6.972;2023-11-18T08:58:24;10.40;;;7.07;;
2011;SDS011;1009;51.436;6.972;2023-11-18T09:00:59;10.27;;;6.80;;
2011;SDS011;1009;51.436;6.972;2023-11-18T09:03:38;10.20;;;6.93;;
2011;SDS011;1009;51.436;6.972;2023-11-18T09:06:10;11.27;;;8.13;;
2011;SDS011;1009;51.436;6.972;2023-11-18T09:08:43;9.83;;;6.43;;
2011;SDS011;1009;51.436;6.972;2023-11-18T09:11:10;7.20;;;5.53;;
2011;SDS011;1009;51.436;6.972;2023-11-18T09:13:41;9.80;;;6.40;;
2011;SDS011;1009;51.436;6.972;2023-11-18T09:16:10;10.33;;;7.00;;
2011;SDS011;1009;51.436;6.972;2023-11-18T09:18:38;10.37;;;6.50;;
2011;SDS011;1009;51.436;6.972;2023-11-18T09:21:06;11.80;;;6.70;;
2011;SDS011;1009;51.436;6.972;2023-11-18T09:23:40;9.40;;;6.20;;
2011;SDS011;1009;51.436;6.972;2023-11-18T09:26:14;9.20;;;6.80;;
2011;SDS011;1009;51.436;6.972;2023-11-18T09:28:46;10.30;;;6.60;;
2011;SDS011;1009;51.436;6.972;2023-11-18T09:31:17;9.17;;;6.43;;
2011;SDS011;1009;51.436;6.972;2023-11-18T09:33:49;7.10;;;5.23;;
2011;SDS011;1009;51.436;6.972;2023-11-18T09:36:18;9.60;;;5.80;;
2011;SDS011;1009;51.436;6.972;2023-11-18T09:38:48;6.40;;;5.20;;
2011;SDS011;1009;51.436;6.972;2023-11-18T09:41:15;8.37;;;6.17;;
2011;SDS011;1009;51.436;6.972;2023-11-18T09:43:44;8.33;;;5.73;;
2011;SDS011;1009;51.436;6.972;2023-11-18T09:46:12;10.53;;;5.57;;
2011;SDS011;1009;51.436;6.972;2023-11-18T09:48:41;7.90;;;5.40;;
2011;SDS011;1009;51.436;6.972;2023-11-18T09:51:12;8.77;;;6.17;;
2011;SDS011;1009;51.436;6.972;2023-11-18T09:53:48;7.83;;;6.10;;
2011;SDS011;1009;51.436;6.972;2023-11-18T09:56:18;8.43;;;6.40;;
2011;SDS011;1009;51.436;6.972;2023-11-18T09:58:54;7.50;;;5.73;;
2011;SDS011;1009;51.436;6.972;2023-11-18T10:01:30;8.53;;;5.17;;
2011;SDS011;1009;51.436;6.972;2023-11-18T10:04:04;8.07;;;5.77;;
2011;SDS011;1009;51.436;6.972;2023-11-18T10:06:32;8.33;;;5.73;;
2011;SDS011;1009;51.436;6.972;2023-11-18T10:09:03;9.73;;;5.43;;
2011;SDS011;1009;51.436;6.972;2023-11-18T10:11:41;8.13;;;5.60;;
2011;SDS011;1009;51.436;6.972;2023-11-18T10:14:11;11.30;;;5.80;;
2011;SDS011;1009;51.436;6.972;2023-11-18T10:16:40;9.90;;;5.90;;
2011;SDS011;1009;51.436;6.972;2023-11-18T10:19:11;9.10;;;5.80;;
2011;SDS011;1009;51.436;6.972;2023-11-18T10:21:37;11.13;;;7.57;;
2011;SDS011;1009;51.436;6.972;2023-11-18T10:24:07;8.67;;;6.10;;
2011;SDS011;1009;51.436;6.972;2023-11-18T10:26:40;8.70;;;6.17;;
2011;SDS011;1009;51.436;6.972;2023-11-18T10:29:10;11.03;;;6.33;;
2011;SDS011;1009;51.436;6.972;2023-11-18T10:31:38;8.57;;;5.80;;
2011;SDS011;1009;51.436;6.972;2023-11-18T10:34:10;9.60;;;6.20;;
2011;SDS011;1009;51.436;6.972;2023-11-18T10:36:43;12.90;;;6.27;;
2011;SDS011;1009;51.436;6.972;2023-11-18T10:39:28;10.27;;;6.30;;
2011;SDS011;1009;51.436;6.972;2023-11-18T10:41:58;10.53;;;6.60;;
2011;SDS011;1009;51.436;6.972;2023-11-18T10:44:33;10.37;;;5.53;;
2011;SDS011;1009;51.436;6.972;2023-11-18T10:47:04;11.50;;;6.83;;
2011;SDS011;1009;51.436;6.972;2023-11-18T10:49:39;8.47;;;5.67;;
2011;SDS011;1009;51.436;6.972;2023-11-18T10:52:11;6.90;;;5.83;;
2011;SDS011;1009;51.436;6.972;2023-11-18T10:54:42;9.87;;;6.20;;
2011;SDS011;1009;51.436;6.972;2023-11-18T10:57:19;7.93;;;4.87;;
2011;SDS011;1009;51.436;6.972;2023-11-18T11:00:02;8.50;;;6.40;;
2011;SDS011;1009;51.436;6.972;2023-11-18T11:02:40;9.60;;;6.53;;
2011;SDS011;1009;51.436;6.972;2023-11-18T11:05:21;7.67;;;5.97;;
2011;SDS011;1009;51.436;6.972;2023-11-18T11:07:58;7.20;;;6.10;;
2011;SDS011;1009;51.436;6.972;2023-11-18T11:10:27;7.10;;;5.70;;
2011;SDS011;1009;51.436;6.972;2023-11-18T11:12:57;9.40;;;5.70;;
2011;SDS011;1009;51.436;6.972;2023-11-18T11:15:45;8.13;;;4.80;;
2011;SDS011;1009;51.436;6.972;2023-11-18T11:18:21;7.70;;;4.33;;
2011;SDS011;1009;51.436;6.972;2023-11-18T11:20:57;7.87;;;4.57;;
2011;SDS011;1009;51.436;6.972;2023-11-18T11:23:30;10.20;;;5.27;;
2011;SDS011;1009;51.436;6.972;2023-11-18T11:26:13;7.67;;;5.37;;
2011;SDS011;1009;51.436;6.972;2023-11-18T11:28:55;7.37;;;5.03;;
2011;SDS011;1009;51.436;6.972;2023-11-18T11:31:30;7.97;;;5.23;;
2011;SDS011;1009;51.436;6.972;2023-11-18T11:34:03;7.30;;;5.30;;
2011;SDS011;1009;51.436;6.972;2023-11-18T11:36:35;7.43;;;5.40;;
2011;SDS011;1009;51.436;6.972;2023-11-18T11:39:06;7.87;;;5.20;;
2011;SDS011;1009;51.436;6.972;2023-11-18T11:41:43;9.73;;;5.70;;
2011;SDS011;1009;51.436;6.972;2023-11-18T11:44:15;7.90;;;6.27;;
2011;SDS011;1009;51.436;6.972;2023-11-18T11:46:45;8.23;;;5.37;;
2011;SDS011;1009;51.436;6.972;2023-11-18T11:49:18;8.80;;;5.77;;
2011;SDS011;1009;51.436;6.972;2023-11-18T11:51:47;7.13;;;5.70;;
2011;SDS011;1009;51.436;6.972;2023-11-18T11:54:21;6.57;;;5.30;;
2011;SDS011;1009;51.436;6.972;2023-11-18T11:57:03;6.70;;;4.80;;
2011;SDS011;1009;51.436;6.972;2023-11-18T11:59:35;9.37;;;5.57;;
2011;SDS011;1009;51.436;6.972;2023-11-18T12:02:21;5.87;;;4.77;;
2011;SDS011;1009;51.436;6.972;2023-11-18T12:04:51;7.53;;;5.73;;
2011;SDS011;1009;51.436;6.972;2023-11-18T12:07:27;7.53;;;4.80;;
2011;SDS011;1009;51.436;6.972;2023-11-18T12:09:57;7.40;;;6.27;;
2011;SDS011;1009;51.436;6.972;2023-11-18T12:12:27;12.73;;;5.90;;
2011;SDS011;1009;51.436;6.972;2023-11-18T12:14:56;9.80;;;5.20;;
2011;SDS011;1009;51.436;6.972;2023-11-18T12:20:42;7.47;;;5.00;;
2011;SDS011;1009;51.436;6.972;2023-11-18T12:23:12;7.43;;;5.00;;
2011;SDS011;1009;51.436;6.972;2023-11-18T12:25:43;6.87;;;5.70;;
2011;SDS011;1009;51.436;6.972;2023-11-18T12:28:18;9.53;;;5.70;;
2011;SDS011;1009;51.436;6.972;2023-11-18T12:30:49;7.13;;;5.60;;
2011;SDS011;1009;51.436;6.972;2023-11-18T12:33:21;4.93;;;4.27;;
2011;SDS011;1009;51.436;6.972;2023-11-18T12:36:17;6.00;;;5.17;;
2011;SDS011;1009;51.436;6.972;2023-11-18T12:39:20;9.60;;;5.23;;
2011;SDS011;1009;51.436;6.972;2023-11-18T12:42:09;8.23;;;5.33;;
2011;SDS011;1009;51.436;6.972;2023-11-18T12:44:47;6.77;;;4.67;;
2011;SDS011;1009;51.436;6.972;2023-11-18T12:47:39;5.87;;;4.67;;
2011;SDS011;1009;51.436;6.972;2023-11-18T12:50:11;8.00;;;5.13;;
2011;SDS011;1009;51.436;6.972;2023-11-18T12:52:48;8.67;;;6.33;;
2011;SDS011;1009;51.436;6.972;2023-11-18T12:55:16;6.90;;;5.20;;
2011;SDS011;1009;51.436;6.972;2023-11-18T12:57:47;5.67;;;4.10;;
2011;SDS011;1009;51.436;6.972;2023-11-18T13:00:18;7.20;;;4.77;;
2011;SDS011;1009;51.436;6.972;2023-11-18T13:02:52;6.70;;;4.50;;
2011;SDS011;1009;51.436;6.972;2023-11-18T13:05:21;5.83;;;3.73;;
2011;SDS011;1009;51.436;6.972;2023-11-18T13:07:51;6.70;;;5.00;;
2011;SDS011;1009;51.436;6.972;2023-11-18T13:10:21;6.00;;;3.73;;
2011;SDS011;1009;51.436;6.972;2023-11-18T13:12:52;5.47;;;3.93;;
2011;SDS011;1009;51.436;6.972;2023-11-18T13:15:20;6.73;;;4.53;;
2011;SDS011;1009;51.436;6.972;2023-11-18T13:17:59;6.83;;;3.93;;
2011;SDS011;1009;51.436;6.972;2023-11-18T13:20:27;4.73;;;3.70;;
2011;SDS011;1009;51.436;6.972;2023-11-18T13:23:00;5.90;;;3.93;;
2011;SDS011;1009;51.436;6.972;2023-11-18T13:25:40;6.73;;;3.60;;
2011;SDS011;1009;51.436;6.972;2023-11-18T13:28:07;5.17;;;3.93;;
2011;SDS011;1009;51.436;6.972;2023-11-18T13:30:37;5.53;;;4.23;;
2011;SDS011;1009;51.436;6.972;2023-11-18T13:33:04;4.60;;;3.57;;
2011;SDS011;1009;51.436;6.972;2023-11-18T13:35:32;4.43;;;3.37;;
2011;SDS011;1009;51.436;6.972;2023-11-18T13:38:00;6.60;;;3.83;;
2011;SDS011;1009;51.436;6.972;2023-11-18T13:40:41;7.13;;;4.13;;
2011;SDS011;1009;51.436;6.972;2023-11-18T13:43:12;6.43;;;3.67;;
2011;SDS011;1009;51.436;6.972;2023-11-18T13:45:42;5.60;;;3.90;;
2011;SDS011;1009;51.436;6.972;2023-11-18T13:48:11;5.87;;;4.00;;
2011;SDS011;1009;51.436;6.972;2023-11-18T13:50:40;6.70;;;3.20;;
2011;SDS011;1009;51.436;6.972;2023-11-18T13:53:07;4.33;;;3.13;;
2011;SDS011;1009;51.436;6.972;2023-11-18T13:55:35;6.20;;;3.23;;
2011;SDS011;1009;51.436;6.972;2023-11-18T13:58:04;5.87;;;3.50;;
2011;SDS011;1009;51.436;6.972;2023-11-18T14:00:32;6.23;;;3.47;;
2011;SDS011;1009;51.436;6.972;2023-11-18T14:03:00;3.90;;;2.80;;
2011;SDS011;1009;51.436;6.972;2023-11-18T14:05:29;4.50;;;2.50;;
2011;SDS011;1009;51.436;6.972;2023-11-18T14:08:06;3.50;;;2.87;;
2011;SDS011;1009;51.436;6.972;2023-11-18T14:10:34;4.50;;;2.67;;
2011;SDS011;1009;51.436;6.972;2023-11-18T14:13:03;4.17;;;2.27;;
2011;SDS011;1009;51.436;6.972;2023-11-18T14:15:34;3.47;;;2.50;;
2011;SDS011;1009;51.436;6.972;2023-11-18T14:18:03;3.90;;;2.40;;
2011;SDS011;1009;51.436;6.972;2023-11-18T14:20:32;3.97;;;3.00;;
2011;SDS011;1009;51.436;6.972;2023-11-18T14:23:00;3.30;;;2.00;;
2011;SDS011;1009;51.436;6.972;2023-11-18T14:25:28;3.30;;;2.43;;
2011;SDS011;1009;51.436;6.972;2023-11-18T14:27:57;4.70;;;2.00;;
2011;SDS011;1009;51.436;6.972;2023-11-18T14:30:24;4.27;;;2.50;;
2011;SDS011;1009;51.436;6.972;2023-11-18T14:32:54;2.67;;;1.93;;
2011;SDS011;1009;51.436;6.972;2023-11-18T14:35:22;3.60;;;2.23;;
2011;SDS011;1009;51.436;6.972;2023-11-18T14:37:52;5.67;;;2.40;;
2011;SDS011;1009;51.436;6.972;2023-11-18T14:40:21;3.53;;;1.90;;
2011;SDS011;1009;51.436;6.972;2023-11-18T14:42:49;3.20;;;2.30;;
2011;SDS011;1009;51.436;6.972;2023-11-18T14:45:16;4.33;;;2.57;;
2011;SDS011;1009;51.436;6.972;2023-11-18T14:47:46;5.30;;;2.60;;
2011;SDS011;1009;51.436;6.972;2023-11-18T14:50:20;6.73;;;2.57;;
2011;SDS011;1009;51.436;6.972;2023-11-18T14:52:54;2.70;;;2.30;;
2011;SDS011;1009;51.436;6.972;2023-11-18T14:55:27;4.20;;;2.57;;
2011;SDS011;1009;51.436;6.972;2023-11-18T14:57:57;4.03;;;2.83;;
2011;SDS011;1009;51.436;6.972;2023-11-18T15:00:32;4.23;;;2.67;;
2011;SDS011;1009;51.436;6.972;2023-11-18T15:02:59;3.17;;;2.63;;
2011;SDS011;1009;51.436;6.972;2023-11-18T15:05:28;6.30;;;3.10;;
2011;SDS011;1009;51.436;6.972;2023-11-18T15:07:56;4.47;;;3.00;;
2011;SDS011;1009;51.436;6.972;2023-11-18T15:10:26;3.70;;;3.00;;
2011;SDS011;1009;51.436;6.972;2023-11-18T15:12:57;7.90;;;4.13;;
2011;SDS011;1009;51.436;6.972;2023-11-18T15:15:30;5.80;;;3.40;;
2011;SDS011;1009;51.436;6.972;2023-11-18T15:17:59;5.63;;;3.30;;
2011;SDS011;1009;51.436;6.972;2023-11-18T15:20:29;5.93;;;4.33;;
2011;SDS011;1009;51.436;6.972;2023-11-18T15:22:57;4.77;;;3.53;;
2011;SDS011;1009;51.436;6.972;2023-11-18T15:25:25;5.87;;;3.23;;
2011;SDS011;1009;51.436;6.972;2023-11-18T15:27:54;4.00;;;3.60;;
2011;SDS011;1009;51.436;6.972;2023-11-18T15:30:22;3.70;;;3.30;;